Impacts TAF Board
For situational awareness. Not to be used for flight planning purposes.
IDs:

KHQM - Hoquiam/Bowerman Arp, WA, US

Issued at 2346 UTC 05 Dec 2019
Updated at 0118 UTC 06 Dec 2019
Potential Impact None Slight Moderate High
Time0053Z 06/02Z 06/03Z 06/04Z 06/05Z 06/06Z 06/07Z 06/08Z 06/09Z 06/10Z 06/11Z 06/12Z 06/13Z 06/14Z>>
Type OBS PRVL PRVL PRVL PRVL PRVL PRVL PRVL PRVL PRVL PRVL PRVL PRVL PRVL
VIS 10 >6 >6 >6 >6 >6 >6 >6 >6 >6 >6 >6 >6 >6
CIG 41 20 20 20 20 50 50 50 50 50 50 50 50 50
Cover OVC OVC OVC OVC OVC OVC OVC OVC OVC OVC OVC OVC OVC OVC
FltCat VFR MVFR MVFR MVFR MVFR VFR VFR VFR VFR VFR VFR VFR VFR VFR
WX -- -- -- -- -- -- -- -- -- -- -- -- -- --
WDir 70 100 100 100 100 80 80 80 80 80 80 80 80 80
WSpd 8 8 8 8 8 10 10 10 10 10 10 10 10 10
WGst -- -- -- -- -- -- -- -- -- -- -- -- -- --
Raw TAF
KHQM 052346Z 0600/0624 10008KT P6SM BKN020 OVC030
  FM060600 08010KT P6SM OVC050
  FM062000 06008KT P6SM OVC030
  FM062200 07008KT 4SM -RA OVC015


Raw METAR
KHQM 060053Z AUTO 07008KT 10SM FEW028 OVC041 10/08 A3000 RMK AO2 SLP161 T01000083 /
KHQM 060043Z AUTO 08008KT 10SM SCT026 OVC041 10/08 A3000 RMK AO2 T01000083 $
KHQM 052353Z AUTO 10006KT 10SM OVC018 09/09 A3001 RMK AO2 SLP167 T00940089 10106 20083 53001 $
KHQM 052253Z AUTO 10008KT 10SM BKN019 OVC027 10/08 A3001 RMK AO2 SLP165 T01000083 $

METAR Board
Radar Display
Forecast Discussion
For situational awareness. Not to be used for flight planning purposes.